Terminal Aerodrome Forecast
Issued by NWS

Home | Current Version | Previous Version | Text Only | Print | Product List | Glossary On
Versions: 1 2 3 4 5 6 7 8 9 10 11 12 13 14 15 16 17 18
000
FTUS42 KGSP 202300
TAFGMU
TAF
KGMU 202337Z 2100/2124 28006KT P6SM VCSH SCT070 BKN250
     FM210200 00000KT P6SM BKN250
     FM211300 02004KT P6SM SCT250
     FM211800 26005KT P6SM SCT070=

USA.gov is the U.S. government's official web portal to all federal, state and local government web resources and services.